sensor_id;sensor_type;location;lat;lon;timestamp;pressure;altitude;pressure_sealevel;temperature;humidity
11415;BME280;5763;42.714;23.244;2023-01-08T00:00:04;95081.03;;;5.79;61.94
11415;BME280;5763;42.714;23.244;2023-01-08T00:02:31;95072.13;;;5.79;61.61
11415;BME280;5763;42.714;23.244;2023-01-08T00:04:58;95083.13;;;5.68;62.54
11415;BME280;5763;42.714;23.244;2023-01-08T00:07:26;95074.97;;;5.68;63.11
11415;BME280;5763;42.714;23.244;2023-01-08T00:09:53;95075.84;;;5.62;62.88
11415;BME280;5763;42.714;23.244;2023-01-08T00:12:19;95078.25;;;5.56;63.14
11415;BME280;5763;42.714;23.244;2023-01-08T00:14:46;95081.25;;;5.62;63.12
11415;BME280;5763;42.714;23.244;2023-01-08T00:17:13;95072.78;;;5.60;63.36
11415;BME280;5763;42.714;23.244;2023-01-08T00:19:40;95074.81;;;5.52;63.56
11415;BME280;5763;42.714;23.244;2023-01-08T00:22:07;95074.47;;;5.47;64.77
11415;BME280;5763;42.714;23.244;2023-01-08T00:24:35;95069.50;;;5.45;64.71
11415;BME280;5763;42.714;23.244;2023-01-08T00:27:02;95071.81;;;5.43;65.39
11415;BME280;5763;42.714;23.244;2023-01-08T00:29:29;95069.06;;;5.47;65.48
11415;BME280;5763;42.714;23.244;2023-01-08T00:31:55;95071.78;;;5.47;65.82
11415;BME280;5763;42.714;23.244;2023-01-08T00:34:22;95063.91;;;5.56;66.16
11415;BME280;5763;42.714;23.244;2023-01-08T00:36:49;95066.50;;;5.63;64.26
11415;BME280;5763;42.714;23.244;2023-01-08T00:39:16;95067.41;;;5.56;63.61
11415;BME280;5763;42.714;23.244;2023-01-08T00:41:44;95077.75;;;5.65;63.45
11415;BME280;5763;42.714;23.244;2023-01-08T00:44:10;95076.34;;;5.53;64.56
11415;BME280;5763;42.714;23.244;2023-01-08T00:46:37;95079.41;;;5.55;64.75
11415;BME280;5763;42.714;23.244;2023-01-08T00:49:04;95078.31;;;5.49;64.43
11415;BME280;5763;42.714;23.244;2023-01-08T00:51:31;95076.78;;;5.48;65.27
11415;BME280;5763;42.714;23.244;2023-01-08T00:53:57;95077.47;;;5.56;65.09
11415;BME280;5763;42.714;23.244;2023-01-08T00:56:24;95073.97;;;5.55;64.05
11415;BME280;5763;42.714;23.244;2023-01-08T00:58:53;95076.03;;;5.48;64.10
11415;BME280;5763;42.714;23.244;2023-01-08T01:01:20;95079.41;;;5.55;63.60
11415;BME280;5763;42.714;23.244;2023-01-08T01:03:47;95088.06;;;5.47;63.41
11415;BME280;5763;42.714;23.244;2023-01-08T01:06:14;95083.00;;;5.49;63.13
11415;BME280;5763;42.714;23.244;2023-01-08T01:08:41;95070.63;;;5.44;63.59
11415;BME280;5763;42.714;23.244;2023-01-08T01:11:11;95067.47;;;5.49;64.04
11415;BME280;5763;42.714;23.244;2023-01-08T01:13:41;95077.97;;;5.47;64.19
11415;BME280;5763;42.714;23.244;2023-01-08T01:16:09;95078.16;;;5.33;64.62
11415;BME280;5763;42.714;23.244;2023-01-08T01:18:36;95069.28;;;5.29;64.80
11415;BME280;5763;42.714;23.244;2023-01-08T01:21:09;95045.06;;;5.15;64.60
11415;BME280;5763;42.714;23.244;2023-01-08T01:23:36;95072.66;;;5.40;64.29
11415;BME280;5763;42.714;23.244;2023-01-08T01:26:03;95071.41;;;5.45;63.91
11415;BME280;5763;42.714;23.244;2023-01-08T01:28:29;95068.38;;;5.39;63.47
11415;BME280;5763;42.714;23.244;2023-01-08T01:30:56;95054.09;;;5.35;63.11
11415;BME280;5763;42.714;23.244;2023-01-08T01:33:24;95066.41;;;5.43;63.18
11415;BME280;5763;42.714;23.244;2023-01-08T01:35:59;95069.06;;;5.47;62.81
11415;BME280;5763;42.714;23.244;2023-01-08T01:38:26;95067.69;;;5.35;63.86
11415;BME280;5763;42.714;23.244;2023-01-08T01:40:53;95069.09;;;5.43;64.12
11415;BME280;5763;42.714;23.244;2023-01-08T01:43:33;95060.56;;;5.45;62.83
11415;BME280;5763;42.714;23.244;2023-01-08T01:46:00;95054.81;;;5.39;62.99
11415;BME280;5763;42.714;23.244;2023-01-08T01:48:29;95053.72;;;5.33;63.14
11415;BME280;5763;42.714;23.244;2023-01-08T01:50:56;95054.00;;;5.42;62.69
11415;BME280;5763;42.714;23.244;2023-01-08T01:53:26;95052.97;;;5.33;62.98
11415;BME280;5763;42.714;23.244;2023-01-08T01:55:55;95048.25;;;5.37;62.62
11415;BME280;5763;42.714;23.244;2023-01-08T01:58:25;95047.50;;;5.36;62.68
11415;BME280;5763;42.714;23.244;2023-01-08T02:00:53;95046.78;;;5.32;62.58
11415;BME280;5763;42.714;23.244;2023-01-08T02:03:23;95041.41;;;5.29;62.39
11415;BME280;5763;42.714;23.244;2023-01-08T02:05:57;95034.56;;;5.17;62.61
11415;BME280;5763;42.714;23.244;2023-01-08T02:08:32;95042.75;;;5.14;63.47
11415;BME280;5763;42.714;23.244;2023-01-08T02:11:06;95044.69;;;5.13;63.52
11415;BME280;5763;42.714;23.244;2023-01-08T02:13:38;95042.69;;;5.17;62.71
11415;BME280;5763;42.714;23.244;2023-01-08T02:16:12;95041.25;;;5.09;63.24
11415;BME280;5763;42.714;23.244;2023-01-08T02:18:45;95040.09;;;5.10;63.47
11415;BME280;5763;42.714;23.244;2023-01-08T02:21:18;95038.56;;;5.09;63.25
11415;BME280;5763;42.714;23.244;2023-01-08T02:23:52;95041.66;;;5.08;63.90
11415;BME280;5763;42.714;23.244;2023-01-08T02:26:25;95034.66;;;5.10;64.11
11415;BME280;5763;42.714;23.244;2023-01-08T02:28:57;95027.72;;;5.06;63.69
11415;BME280;5763;42.714;23.244;2023-01-08T02:31:27;95030.13;;;5.00;63.89
11415;BME280;5763;42.714;23.244;2023-01-08T02:33:54;95028.56;;;5.03;63.63
11415;BME280;5763;42.714;23.244;2023-01-08T02:36:34;95032.47;;;4.98;63.52
11415;BME280;5763;42.714;23.244;2023-01-08T02:39:27;95028.66;;;4.92;64.10
11415;BME280;5763;42.714;23.244;2023-01-08T02:42:06;95027.13;;;4.91;64.09
11415;BME280;5763;42.714;23.244;2023-01-08T02:44:44;95020.91;;;4.94;63.91
11415;BME280;5763;42.714;23.244;2023-01-08T02:47:18;95021.41;;;4.82;64.12
11415;BME280;5763;42.714;23.244;2023-01-08T02:49:52;95017.91;;;4.85;64.04
11415;BME280;5763;42.714;23.244;2023-01-08T02:52:20;95012.97;;;4.77;65.18
11415;BME280;5763;42.714;23.244;2023-01-08T02:54:49;95009.50;;;4.76;65.35
11415;BME280;5763;42.714;23.244;2023-01-08T02:57:18;95012.28;;;4.69;66.02
11415;BME280;5763;42.714;23.244;2023-01-08T02:59:46;95019.50;;;4.83;65.95
11415;BME280;5763;42.714;23.244;2023-01-08T03:02:15;95021.34;;;4.89;65.02
11415;BME280;5763;42.714;23.244;2023-01-08T03:04:47;95021.66;;;4.95;65.08
11415;BME280;5763;42.714;23.244;2023-01-08T03:07:16;95025.22;;;4.88;64.67
11415;BME280;5763;42.714;23.244;2023-01-08T03:09:43;95018.19;;;4.94;64.14
11415;BME280;5763;42.714;23.244;2023-01-08T03:12:17;95019.44;;;4.86;64.92
11415;BME280;5763;42.714;23.244;2023-01-08T03:14:51;95032.47;;;4.98;64.16
11415;BME280;5763;42.714;23.244;2023-01-08T03:17:23;95023.56;;;4.98;64.92
11415;BME280;5763;42.714;23.244;2023-01-08T03:19:53;95027.81;;;4.99;64.55
11415;BME280;5763;42.714;23.244;2023-01-08T03:22:21;95027.91;;;4.92;64.48
11415;BME280;5763;42.714;23.244;2023-01-08T03:24:51;95018.31;;;4.84;64.29
11415;BME280;5763;42.714;23.244;2023-01-08T03:27:23;95024.16;;;4.79;64.41
11415;BME280;5763;42.714;23.244;2023-01-08T03:29:54;95027.28;;;4.77;64.18
11415;BME280;5763;42.714;23.244;2023-01-08T03:32:23;95027.03;;;4.68;64.53
11415;BME280;5763;42.714;23.244;2023-01-08T03:34:53;95033.59;;;4.67;64.33
11415;BME280;5763;42.714;23.244;2023-01-08T03:37:25;95019.72;;;4.62;64.58
11415;BME280;5763;42.714;23.244;2023-01-08T03:39:56;95025.19;;;4.58;65.03
11415;BME280;5763;42.714;23.244;2023-01-08T03:42:27;95023.97;;;4.63;64.57
11415;BME280;5763;42.714;23.244;2023-01-08T03:44:56;95017.75;;;4.62;64.46
11415;BME280;5763;42.714;23.244;2023-01-08T03:47:24;95009.69;;;4.59;64.35
11415;BME280;5763;42.714;23.244;2023-01-08T03:49:54;95024.06;;;4.52;63.79
11415;BME280;5763;42.714;23.244;2023-01-08T03:52:22;95007.78;;;4.56;63.65
11415;BME280;5763;42.714;23.244;2023-01-08T03:54:50;95011.28;;;4.53;63.41
11415;BME280;5763;42.714;23.244;2023-01-08T03:57:17;95022.13;;;4.53;63.10
11415;BME280;5763;42.714;23.244;2023-01-08T03:59:45;95018.34;;;4.47;63.70
11415;BME280;5763;42.714;23.244;2023-01-08T04:02:12;95026.03;;;4.52;63.81
11415;BME280;5763;42.714;23.244;2023-01-08T04:04:39;95015.13;;;4.55;63.65
11415;BME280;5763;42.714;23.244;2023-01-08T04:07:06;95012.25;;;4.36;64.20
11415;BME280;5763;42.714;23.244;2023-01-08T04:09:33;95019.47;;;4.49;63.60
11415;BME280;5763;42.714;23.244;2023-01-08T04:11:59;95022.53;;;4.51;64.18
11415;BME280;5763;42.714;23.244;2023-01-08T04:14:26;95017.94;;;4.45;64.28
11415;BME280;5763;42.714;23.244;2023-01-08T04:16:54;95017.19;;;4.44;64.09
11415;BME280;5763;42.714;23.244;2023-01-08T04:19:21;95019.91;;;4.44;64.18
11415;BME280;5763;42.714;23.244;2023-01-08T04:21:49;95026.84;;;4.45;64.22
11415;BME280;5763;42.714;23.244;2023-01-08T04:24:16;95026.50;;;4.43;63.94
11415;BME280;5763;42.714;23.244;2023-01-08T04:26:43;95021.50;;;4.38;64.54
11415;BME280;5763;42.714;23.244;2023-01-08T04:29:10;95028.00;;;4.48;63.74
11415;BME280;5763;42.714;23.244;2023-01-08T04:31:37;95024.06;;;4.52;63.24
11415;BME280;5763;42.714;23.244;2023-01-08T04:34:05;95026.84;;;4.45;62.80
11415;BME280;5763;42.714;23.244;2023-01-08T04:36:33;95019.19;;;4.37;63.23
11415;BME280;5763;42.714;23.244;2023-01-08T04:38:59;95022.63;;;4.44;62.77
11415;BME280;5763;42.714;23.244;2023-01-08T04:41:26;95029.56;;;4.45;62.37
11415;BME280;5763;42.714;23.244;2023-01-08T04:43:53;95020.38;;;4.36;62.85
11415;BME280;5763;42.714;23.244;2023-01-08T04:46:19;95020.81;;;4.27;63.43
11415;BME280;5763;42.714;23.244;2023-01-08T04:48:46;95015.41;;;4.31;63.83
11415;BME280;5763;42.714;23.244;2023-01-08T04:51:14;95023.53;;;4.31;63.38
11415;BME280;5763;42.714;23.244;2023-01-08T04:53:42;95030.78;;;4.41;62.81
11415;BME280;5763;42.714;23.244;2023-01-08T04:56:10;95024.22;;;4.38;62.47
11415;BME280;5763;42.714;23.244;2023-01-08T04:58:37;95030.94;;;4.23;63.46
11415;BME280;5763;42.714;23.244;2023-01-08T05:01:11;95032.56;;;4.14;64.47
11415;BME280;5763;42.714;23.244;2023-01-08T05:03:39;95032.88;;;4.23;63.41
11415;BME280;5763;42.714;23.244;2023-01-08T05:06:06;95036.81;;;4.15;63.41
11415;BME280;5763;42.714;23.244;2023-01-08T05:08:34;95039.50;;;4.18;62.97
11415;BME280;5763;42.714;23.244;2023-01-08T05:11:01;95039.47;;;4.22;62.85
11415;BME280;5763;42.714;23.244;2023-01-08T05:13:28;95024.84;;;4.12;62.31
11415;BME280;5763;42.714;23.244;2023-01-08T05:15:58;95036.41;;;4.20;62.37
11415;BME280;5763;42.714;23.244;2023-01-08T05:18:26;95029.13;;;4.06;62.75
11415;BME280;5763;42.714;23.244;2023-01-08T05:20:53;95031.03;;;4.13;63.10
11415;BME280;5763;42.714;23.244;2023-01-08T05:23:19;95029.94;;;4.03;62.85
11415;BME280;5763;42.714;23.244;2023-01-08T05:25:48;95035.28;;;4.10;63.07
11415;BME280;5763;42.714;23.244;2023-01-08T05:28:14;95020.28;;;4.02;63.74
11415;BME280;5763;42.714;23.244;2023-01-08T05:30:41;95030.53;;;4.25;64.72
11415;BME280;5763;42.714;23.244;2023-01-08T05:33:08;95025.97;;;4.18;63.94
11415;BME280;5763;42.714;23.244;2023-01-08T05:35:34;95029.41;;;4.22;63.34
11415;BME280;5763;42.714;23.244;2023-01-08T05:38:01;95044.09;;;4.25;62.80
11415;BME280;5763;42.714;23.244;2023-01-08T05:40:28;95039.53;;;4.15;62.51
11415;BME280;5763;42.714;23.244;2023-01-08T05:42:57;95030.28;;;4.09;62.32
11415;BME280;5763;42.714;23.244;2023-01-08T05:45:24;95041.84;;;4.13;62.10
11415;BME280;5763;42.714;23.244;2023-01-08T05:47:51;95038.06;;;4.03;63.22
11415;BME280;5763;42.714;23.244;2023-01-08T05:50:18;95039.22;;;4.06;62.65
11415;BME280;5763;42.714;23.244;2023-01-08T05:52:45;95040.00;;;4.03;63.11
11415;BME280;5763;42.714;23.244;2023-01-08T05:55:11;95045.84;;;3.98;64.09
11415;BME280;5763;42.714;23.244;2023-01-08T05:57:38;95041.56;;;4.00;63.95
11415;BME280;5763;42.714;23.244;2023-01-08T06:00:08;95045.03;;;4.04;62.36
11415;BME280;5763;42.714;23.244;2023-01-08T06:02:35;95040.09;;;3.92;62.53
11415;BME280;5763;42.714;23.244;2023-01-08T06:05:03;95038.09;;;3.96;62.78
11415;BME280;5763;42.714;23.244;2023-01-08T06:07:29;95039.69;;;3.97;62.77
11415;BME280;5763;42.714;23.244;2023-01-08T06:09:56;95047.44;;;3.92;62.67
11415;BME280;5763;42.714;23.244;2023-01-08T06:12:23;95052.84;;;3.92;62.95
11415;BME280;5763;42.714;23.244;2023-01-08T06:14:50;95045.81;;;4.05;62.15
11415;BME280;5763;42.714;23.244;2023-01-08T06:17:18;95047.72;;;4.04;62.52
11415;BME280;5763;42.714;23.244;2023-01-08T06:19:44;95051.19;;;4.08;62.68
11415;BME280;5763;42.714;23.244;2023-01-08T06:22:12;95054.31;;;4.03;63.26
11415;BME280;5763;42.714;23.244;2023-01-08T06:24:39;95049.31;;;3.98;63.43
11415;BME280;5763;42.714;23.244;2023-01-08T06:27:06;95048.09;;;4.06;63.14
11415;BME280;5763;42.714;23.244;2023-01-08T06:29:33;95063.59;;;4.06;63.49
11415;BME280;5763;42.714;23.244;2023-01-08T06:31:59;95056.59;;;4.08;63.62
11415;BME280;5763;42.714;23.244;2023-01-08T06:34:28;95057.00;;;4.07;64.12
11415;BME280;5763;42.714;23.244;2023-01-08T06:36:57;95065.09;;;4.10;63.60
11415;BME280;5763;42.714;23.244;2023-01-08T06:39:24;95062.38;;;4.10;63.38
11415;BME280;5763;42.714;23.244;2023-01-08T06:41:50;95065.88;;;4.11;63.42
11415;BME280;5763;42.714;23.244;2023-01-08T06:44:17;95072.75;;;4.22;63.00
11415;BME280;5763;42.714;23.244;2023-01-08T06:46:44;95066.63;;;4.11;63.45
11415;BME280;5763;42.714;23.244;2023-01-08T06:49:11;95068.06;;;4.23;63.04
11415;BME280;5763;42.714;23.244;2023-01-08T06:51:40;95072.66;;;4.29;62.93
11415;BME280;5763;42.714;23.244;2023-01-08T06:54:07;95072.66;;;4.29;63.07
11415;BME280;5763;42.714;23.244;2023-01-08T06:56:34;95068.72;;;4.37;62.88
11415;BME280;5763;42.714;23.244;2023-01-08T06:59:00;95078.41;;;4.38;63.04
11415;BME280;5763;42.714;23.244;2023-01-08T07:01:27;95077.47;;;4.55;62.79
11415;BME280;5763;42.714;23.244;2023-01-08T07:03:54;95073.88;;;4.65;62.40
11415;BME280;5763;42.714;23.244;2023-01-08T07:06:21;95072.66;;;4.70;62.27
11415;BME280;5763;42.714;23.244;2023-01-08T07:08:50;95079.81;;;4.90;61.99
11415;BME280;5763;42.714;23.244;2023-01-08T07:11:17;95082.69;;;5.10;61.53
11415;BME280;5763;42.714;23.244;2023-01-08T07:13:44;95084.75;;;5.32;60.81
11415;BME280;5763;42.714;23.244;2023-01-08T07:16:12;95092.31;;;5.48;60.49
11415;BME280;5763;42.714;23.244;2023-01-08T07:18:40;95091.38;;;5.61;60.24
11415;BME280;5763;42.714;23.244;2023-01-08T07:21:07;95094.56;;;5.86;59.78
11415;BME280;5763;42.714;23.244;2023-01-08T07:23:35;95092.00;;;6.02;59.18
11415;BME280;5763;42.714;23.244;2023-01-08T07:26:05;95095.66;;;6.15;58.93
11415;BME280;5763;42.714;23.244;2023-01-08T07:28:32;95094.56;;;6.36;58.53
11415;BME280;5763;42.714;23.244;2023-01-08T07:31:02;95055.22;;;6.21;58.09
11415;BME280;5763;42.714;23.244;2023-01-08T07:33:29;95077.84;;;6.60;57.93
11415;BME280;5763;42.714;23.244;2023-01-08T07:35:55;95094.13;;;6.83;57.51
11415;BME280;5763;42.714;23.244;2023-01-08T07:38:22;95084.97;;;6.97;57.01
11415;BME280;5763;42.714;23.244;2023-01-08T07:40:49;95089.16;;;7.21;56.70
11415;BME280;5763;42.714;23.244;2023-01-08T07:43:17;95081.50;;;7.35;56.03
11415;BME280;5763;42.714;23.244;2023-01-08T07:45:44;95093.06;;;7.59;55.53
11415;BME280;5763;42.714;23.244;2023-01-08T07:48:11;95084.53;;;7.76;55.17
11415;BME280;5763;42.714;23.244;2023-01-08T07:50:41;95084.91;;;7.94;55.09
11415;BME280;5763;42.714;23.244;2023-01-08T07:53:08;95089.19;;;8.11;54.59
11415;BME280;5763;42.714;23.244;2023-01-08T07:55:35;95092.50;;;8.22;54.23
11415;BME280;5763;42.714;23.244;2023-01-08T07:58:06;95083.63;;;8.34;53.59
11415;BME280;5763;42.714;23.244;2023-01-08T08:00:35;95086.13;;;8.45;53.33
11415;BME280;5763;42.714;23.244;2023-01-08T08:03:03;95079.88;;;8.60;53.27
11415;BME280;5763;42.714;23.244;2023-01-08T08:05:30;95090.59;;;8.51;53.14
11415;BME280;5763;42.714;23.244;2023-01-08T08:07:58;95092.47;;;8.70;52.31
11415;BME280;5763;42.714;23.244;2023-01-08T08:10:25;95084.13;;;8.61;52.35
11415;BME280;5763;42.714;23.244;2023-01-08T08:12:51;95082.41;;;8.67;52.10
11415;BME280;5763;42.714;23.244;2023-01-08T08:15:18;95094.56;;;8.95;51.67
11415;BME280;5763;42.714;23.244;2023-01-08T08:17:47;95095.34;;;8.95;52.36
11415;BME280;5763;42.714;23.244;2023-01-08T08:20:14;95101.31;;;9.06;51.94
11415;BME280;5763;42.714;23.244;2023-01-08T08:22:41;95093.69;;;9.42;51.31
11415;BME280;5763;42.714;23.244;2023-01-08T08:25:08;95075.72;;;9.57;50.17
11415;BME280;5763;42.714;23.244;2023-01-08T08:27:35;95088.28;;;10.08;49.70
11415;BME280;5763;42.714;23.244;2023-01-08T08:30:03;95094.88;;;10.36;48.50
11415;BME280;5763;42.714;23.244;2023-01-08T08:32:30;95104.16;;;10.63;48.13
11415;BME280;5763;42.714;23.244;2023-01-08T08:34:58;95102.69;;;10.84;47.84
11415;BME280;5763;42.714;23.244;2023-01-08T08:37:25;95107.81;;;10.94;47.69
11415;BME280;5763;42.714;23.244;2023-01-08T08:39:52;95102.22;;;10.98;47.63
11415;BME280;5763;42.714;23.244;2023-01-08T08:42:19;95103.53;;;11.27;46.50
11415;BME280;5763;42.714;23.244;2023-01-08T08:44:45;95107.97;;;11.46;45.75
11415;BME280;5763;42.714;23.244;2023-01-08T08:47:14;95100.38;;;11.29;46.56
11415;BME280;5763;42.714;23.244;2023-01-08T08:49:41;95098.53;;;11.47;46.06
11415;BME280;5763;42.714;23.244;2023-01-08T08:52:09;95097.63;;;11.63;45.59
11415;BME280;5763;42.714;23.244;2023-01-08T08:54:36;95089.72;;;11.65;45.37
11415;BME280;5763;42.714;23.244;2023-01-08T08:57:05;95092.53;;;11.74;45.80
11415;BME280;5763;42.714;23.244;2023-01-08T08:59:32;95067.78;;;11.65;44.87
11415;BME280;5763;42.714;23.244;2023-01-08T09:01:59;95089.72;;;11.86;44.56
11415;BME280;5763;42.714;23.244;2023-01-08T09:04:28;95093.75;;;12.03;44.61
11415;BME280;5763;42.714;23.244;2023-01-08T09:06:55;95091.53;;;12.11;44.37
11415;BME280;5763;42.714;23.244;2023-01-08T09:09:23;95086.16;;;12.38;43.16
11415;BME280;5763;42.714;23.244;2023-01-08T09:11:51;95087.91;;;12.53;42.42
11415;BME280;5763;42.714;23.244;2023-01-08T09:14:18;95086.59;;;12.76;42.33
11415;BME280;5763;42.714;23.244;2023-01-08T09:16:44;95080.03;;;12.73;42.46
11415;BME280;5763;42.714;23.244;2023-01-08T09:19:11;95080.81;;;12.83;42.13
11415;BME280;5763;42.714;23.244;2023-01-08T09:21:38;95078.63;;;13.26;41.52
11415;BME280;5763;42.714;23.244;2023-01-08T09:24:05;95073.13;;;13.44;41.13
11415;BME280;5763;42.714;23.244;2023-01-08T09:26:34;95067.63;;;13.26;41.31
11415;BME280;5763;42.714;23.244;2023-01-08T09:29:00;95062.09;;;13.62;40.44
11415;BME280;5763;42.714;23.244;2023-01-08T09:31:28;95065.75;;;13.95;40.00
11415;BME280;5763;42.714;23.244;2023-01-08T09:33:55;95061.16;;;13.83;40.27
11415;BME280;5763;42.714;23.244;2023-01-08T09:36:21;95062.47;;;14.15;39.40
11415;BME280;5763;42.714;23.244;2023-01-08T09:38:48;95061.41;;;14.12;38.90
11415;BME280;5763;42.714;23.244;2023-01-08T09:41:19;95045.47;;;14.25;39.11
11415;BME280;5763;42.714;23.244;2023-01-08T09:43:51;95046.03;;;14.38;38.80
11415;BME280;5763;42.714;23.244;2023-01-08T09:46:20;95051.72;;;14.67;38.42
11415;BME280;5763;42.714;23.244;2023-01-08T09:48:49;95042.66;;;14.76;37.95
11415;BME280;5763;42.714;23.244;2023-01-08T09:51:18;95039.13;;;14.75;37.45
11415;BME280;5763;42.714;23.244;2023-01-08T09:53:49;95030.19;;;14.24;38.63
11415;BME280;5763;42.714;23.244;2023-01-08T09:56:17;95019.94;;;14.16;38.90
11415;BME280;5763;42.714;23.244;2023-01-08T09:58:45;95026.50;;;14.27;38.62
11415;BME280;5763;42.714;23.244;2023-01-08T10:01:19;95018.06;;;14.63;38.52
11415;BME280;5763;42.714;23.244;2023-01-08T10:03:47;95009.44;;;14.70;37.82
11415;BME280;5763;42.714;23.244;2023-01-08T10:06:16;95019.72;;;14.46;38.07
11415;BME280;5763;42.714;23.244;2023-01-08T10:08:43;95007.88;;;14.22;38.54
11415;BME280;5763;42.714;23.244;2023-01-08T10:11:12;95017.19;;;14.16;38.96
11415;BME280;5763;42.714;23.244;2023-01-08T10:13:43;95017.94;;;14.25;39.48
11415;BME280;5763;42.714;23.244;2023-01-08T10:16:20;95008.84;;;14.43;38.90
11415;BME280;5763;42.714;23.244;2023-01-08T10:18:48;95002.63;;;14.33;39.00
11415;BME280;5763;42.714;23.244;2023-01-08T10:21:16;95000.66;;;14.34;38.69
11415;BME280;5763;42.714;23.244;2023-01-08T10:23:50;95004.94;;;14.58;38.76
11415;BME280;5763;42.714;23.244;2023-01-08T10:26:25;94998.66;;;15.05;37.69
11415;BME280;5763;42.714;23.244;2023-01-08T10:29:05;94986.44;;;15.20;37.87
11415;BME280;5763;42.714;23.244;2023-01-08T10:31:33;94980.03;;;15.52;36.47
11415;BME280;5763;42.714;23.244;2023-01-08T10:34:08;94983.31;;;15.27;37.11
11415;BME280;5763;42.714;23.244;2023-01-08T10:36:38;94968.06;;;15.55;36.32
11415;BME280;5763;42.714;23.244;2023-01-08T10:39:06;94968.06;;;15.99;35.59
11415;BME280;5763;42.714;23.244;2023-01-08T10:41:43;94963.50;;;16.10;35.55
11415;BME280;5763;42.714;23.244;2023-01-08T10:44:14;94949.22;;;16.47;34.71
11415;BME280;5763;42.714;23.244;2023-01-08T10:46:45;94962.31;;;16.66;34.35
11415;BME280;5763;42.714;23.244;2023-01-08T10:49:17;94949.78;;;16.50;34.40
11415;BME280;5763;42.714;23.244;2023-01-08T10:51:48;94958.34;;;16.52;34.22
11415;BME280;5763;42.714;23.244;2023-01-08T10:54:26;94949.53;;;16.68;33.73
11415;BME280;5763;42.714;23.244;2023-01-08T10:56:55;94945.78;;;16.91;33.38
11415;BME280;5763;42.714;23.244;2023-01-08T10:59:22;94951.44;;;17.42;32.87
11415;BME280;5763;42.714;23.244;2023-01-08T11:01:53;94937.00;;;17.84;32.10
11415;BME280;5763;42.714;23.244;2023-01-08T11:04:23;94941.69;;;17.47;32.45
11415;BME280;5763;42.714;23.244;2023-01-08T11:06:53;94937.13;;;17.04;32.63
11415;BME280;5763;42.714;23.244;2023-01-08T11:09:27;94941.94;;;16.63;33.63
11415;BME280;5763;42.714;23.244;2023-01-08T11:11:55;94931.44;;;16.88;33.34
11415;BME280;5763;42.714;23.244;2023-01-08T11:14:24;94933.06;;;16.99;32.97
11415;BME280;5763;42.714;23.244;2023-01-08T11:16:54;94928.25;;;17.40;32.43
11415;BME280;5763;42.714;23.244;2023-01-08T11:19:24;94936.56;;;17.66;31.97
11415;BME280;5763;42.714;23.244;2023-01-08T11:21:56;94939.88;;;17.70;31.75
11415;BME280;5763;42.714;23.244;2023-01-08T11:24:28;94927.28;;;17.99;31.44
11415;BME280;5763;42.714;23.244;2023-01-08T11:27:00;94928.75;;;18.26;31.22
11415;BME280;5763;42.714;23.244;2023-01-08T11:29:35;94937.84;;;18.69;30.43
11415;BME280;5763;42.714;23.244;2023-01-08T11:32:29;94919.22;;;19.33;29.26
11415;BME280;5763;42.714;23.244;2023-01-08T11:35:03;94924.63;;;20.36;27.53
11415;BME280;5763;42.714;23.244;2023-01-08T11:37:33;94910.31;;;21.00;26.50
11415;BME280;5763;42.714;23.244;2023-01-08T11:40:01;94908.41;;;21.76;25.71
11415;BME280;5763;42.714;23.244;2023-01-08T11:42:50;94908.53;;;21.94;24.71
11415;BME280;5763;42.714;23.244;2023-01-08T11:45:28;94902.28;;;22.71;24.21
11415;BME280;5763;42.714;23.244;2023-01-08T11:48:11;94896.66;;;22.77;23.98
11415;BME280;5763;42.714;23.244;2023-01-08T11:50:53;94892.44;;;23.68;22.96
11415;BME280;5763;42.714;23.244;2023-01-08T11:53:27;94898.56;;;24.61;21.78
11415;BME280;5763;42.714;23.244;2023-01-08T11:56:11;94892.59;;;26.23;20.11
11415;BME280;5763;42.714;23.244;2023-01-08T11:58:56;94880.63;;;26.63;19.68
11415;BME280;5763;42.714;23.244;2023-01-08T12:01:48;94872.72;;;28.19;18.17
11415;BME280;5763;42.714;23.244;2023-01-08T12:04:46;94881.22;;;28.64;17.71
11415;BME280;5763;42.714;23.244;2023-01-08T12:07:21;94877.28;;;28.52;17.48
11415;BME280;5763;42.714;23.244;2023-01-08T12:09:55;94868.78;;;30.06;16.25
11415;BME280;5763;42.714;23.244;2023-01-08T12:12:36;94875.84;;;31.20;15.15
11415;BME280;5763;42.714;23.244;2023-01-08T12:15:14;94861.38;;;30.50;15.77
11415;BME280;5763;42.714;23.244;2023-01-08T12:20:36;94861.75;;;31.63;14.83
11415;BME280;5763;42.714;23.244;2023-01-08T12:23:14;94863.56;;;32.29;13.86
11415;BME280;5763;42.714;23.244;2023-01-08T12:29:00;94856.47;;;31.50;14.50
11415;BME280;5763;42.714;23.244;2023-01-08T12:31:41;94854.03;;;31.30;14.51
11415;BME280;5763;42.714;23.244;2023-01-08T12:34:17;94855.78;;;31.42;14.75
11415;BME280;5763;42.714;23.244;2023-01-08T12:36:49;94847.56;;;31.20;14.67
11415;BME280;5763;42.714;23.244;2023-01-08T12:39:21;94844.00;;;30.95;14.80
11415;BME280;5763;42.714;23.244;2023-01-08T12:41:51;94832.31;;;31.15;14.80
11415;BME280;5763;42.714;23.244;2023-01-08T12:44:23;94846.88;;;31.46;14.56
11415;BME280;5763;42.714;23.244;2023-01-08T12:46:52;94841.94;;;32.07;14.29
11415;BME280;5763;42.714;23.244;2023-01-08T12:49:25;94838.28;;;32.14;13.95
11415;BME280;5763;42.714;23.244;2023-01-08T12:52:01;94831.63;;;32.02;14.13
11415;BME280;5763;42.714;23.244;2023-01-08T12:54:39;94826.25;;;31.96;13.99
11415;BME280;5763;42.714;23.244;2023-01-08T12:57:16;94831.06;;;31.26;14.59
11415;BME280;5763;42.714;23.244;2023-01-08T12:59:52;94829.19;;;30.70;15.04
11415;BME280;5763;42.714;23.244;2023-01-08T13:02:29;94829.66;;;29.78;15.60
11415;BME280;5763;42.714;23.244;2023-01-08T13:05:10;94828.59;;;28.89;16.22
11415;BME280;5763;42.714;23.244;2023-01-08T13:07:43;94828.47;;;27.46;17.34
11415;BME280;5763;42.714;23.244;2023-01-08T13:10:20;94822.34;;;26.56;18.50
11415;BME280;5763;42.714;23.244;2023-01-08T13:12:49;94816.59;;;26.41;18.68
11415;BME280;5763;42.714;23.244;2023-01-08T13:15:19;94817.44;;;25.88;19.35
11415;BME280;5763;42.714;23.244;2023-01-08T13:17:47;94820.34;;;25.62;19.62
11415;BME280;5763;42.714;23.244;2023-01-08T13:20:21;94814.72;;;24.69;20.36
11415;BME280;5763;42.714;23.244;2023-01-08T13:22:53;94826.06;;;23.56;22.01
11415;BME280;5763;42.714;23.244;2023-01-08T13:25:29;94818.63;;;22.42;22.89